Time;durP1;ratioP1;P1;durP2;ratioP2;P2;SDS_P1;SDS_P2;PMS_P1;PMS_P2;Temp;Humidity;BMP_temperature;BMP_pressure;BME280_temperature;BME280_humidity;BME280_pressure;Samples;Min_cycle;Max_cycle;Signal;HPM_P1;HPM_P2
2023/02/20 00:00:52;;;;;;;;;;;;;;;20.33;49.91;101679.28;4944658;29;2490;-68
2023/02/20 00:03:19;;;;;;;;;;;;;;;20.33;49.66;101675.66;4937078;28;2845;-68
2023/02/20 00:05:45;;;;;;;;;;;;;;;20.32;49.70;101660.53;4936358;29;1742;-67
2023/02/20 00:08:11;;;;;;;;;;;;;;;20.30;49.84;101661.16;4935990;28;1836;-68
2023/02/20 00:10:38;;;;;;;;;;;;;;;20.31;49.69;101656.16;4936959;29;1607;-68
2023/02/20 00:13:05;;;;;;;;;;;;;;;20.29;49.59;101658.91;4935855;29;2860;-68
2023/02/20 00:15:31;;;;;;;;;;;;;;;20.31;49.82;101650.41;4935955;29;2878;-69
2023/02/20 00:17:57;;;;;;;;;;;;;;;20.30;49.65;101643.16;4940379;29;2047;-68
2023/02/20 00:20:24;;;;;;;;;;;;;;;20.31;49.72;101647.53;4934763;29;1759;-68
2023/02/20 00:22:50;;;;;;;;;;;;;;;20.32;49.78;101657.66;4937131;28;1753;-68
2023/02/20 00:25:17;;;;;;;;;;;;;;;20.33;49.63;101653.41;4939001;28;2770;-68
2023/02/20 00:27:43;;;;;;;;;;;;;;;20.34;49.68;101654.13;4936695;28;1706;-68
2023/02/20 00:30:19;;;;;;;;;;;;;;;20.33;49.85;101653.41;4939592;28;1659;-68
2023/02/20 00:32:46;;;;;;;;;;;;;;;20.33;49.70;101639.00;4940839;29;2009;-68
2023/02/20 00:35:12;;;;;;;;;;;;;;;20.33;49.70;101641.88;4940341;29;2644;-68
2023/02/20 00:37:39;;;;;;;;;;;;;;;20.32;49.66;101639.63;4931862;28;2196;-67
2023/02/20 00:40:06;;;;;;;;;;;;;;;20.32;49.64;101646.16;4940777;28;1744;-69
2023/02/20 00:42:32;;;;;;;;;;;;;;;20.33;49.67;101644.03;4928475;29;2300;-68
2023/02/20 00:44:58;;;;;;;;;;;;;;;20.31;49.83;101636.00;4934240;28;2782;-68
2023/02/20 00:47:25;;;;;;;;;;;;;;;20.30;49.77;101628.78;4941110;28;1683;-68
2023/02/20 00:49:51;;;;;;;;;;;;;;;20.28;49.74;101635.16;4936844;29;2346;-68
2023/02/20 00:52:21;;;;;;;;;;;;;;;20.28;49.79;101623.66;4939917;29;1982;-68
2023/02/20 00:54:48;;;;;;;;;;;;;;;20.28;49.69;101626.53;4937662;28;3012;-68
2023/02/20 00:57:14;;;;;;;;;;;;;;;20.28;49.80;101617.16;4940420;29;2126;-68
2023/02/20 00:59:41;;;;;;;;;;;;;;;20.29;49.75;101618.63;4938874;29;2221;-69
2023/02/20 01:02:07;;;;;;;;;;;;;;;20.29;49.66;101618.63;4937206;28;2818;-68
2023/02/20 01:04:34;;;;;;;;;;;;;;;20.29;49.76;101613.66;4935401;28;2597;-68
2023/02/20 01:07:00;;;;;;;;;;;;;;;20.30;49.77;101603.63;4941555;28;1893;-68
2023/02/20 01:09:27;;;;;;;;;;;;;;;20.30;49.93;101611.53;4938320;29;2866;-68
2023/02/20 01:11:53;;;;;;;;;;;;;;;20.30;49.87;101608.66;4938144;29;1763;-68
2023/02/20 01:14:20;;;;;;;;;;;;;;;20.30;49.84;101609.38;4932422;28;1919;-68
2023/02/20 01:16:47;;;;;;;;;;;;;;;20.30;49.75;101603.63;4929199;29;2572;-68
2023/02/20 01:19:13;;;;;;;;;;;;;;;20.30;49.89;101602.91;4934886;29;2682;-68
2023/02/20 01:21:40;;;;;;;;;;;;;;;20.29;49.88;101598.50;4941154;29;3211;-68
2023/02/20 01:24:06;;;;;;;;;;;;;;;20.29;49.67;101593.53;4941469;28;1810;-68
2023/02/20 01:26:32;;;;;;;;;;;;;;;20.28;49.72;101592.00;4935455;28;2912;-68
2023/02/20 01:28:59;;;;;;;;;;;;;;;20.27;49.83;101570.38;4938317;29;1774;-67
2023/02/20 01:31:25;;;;;;;;;;;;;;;20.26;49.60;101573.88;4919852;29;1895;-68
2023/02/20 01:33:51;;;;;;;;;;;;;;;20.26;49.70;101568.88;4937836;28;2326;-68
2023/02/20 01:36:18;;;;;;;;;;;;;;;20.25;49.66;101560.91;4938539;29;2734;-68
2023/02/20 01:38:47;;;;;;;;;;;;;;;20.26;49.70;101542.25;4941500;28;1699;-68
2023/02/20 01:41:13;;;;;;;;;;;;;;;20.27;49.78;101546.63;4938351;29;1943;-68
2023/02/20 01:43:40;;;;;;;;;;;;;;;20.28;49.78;101533.75;4937458;28;1647;-68
2023/02/20 01:46:25;;;;;;;;;;;;;;;20.28;49.52;101530.88;4937602;29;2754;-68
2023/02/20 01:49:03;;;;;;;;;;;;;;;20.30;49.70;101533.88;4933539;28;1800;-69
2023/02/20 01:51:30;;;;;;;;;;;;;;;20.29;49.70;101541.75;4932267;28;1775;-68
2023/02/20 01:53:56;;;;;;;;;;;;;;;20.29;49.65;101532.34;4932319;28;1907;-68
2023/02/20 01:56:23;;;;;;;;;;;;;;;20.28;49.78;101530.88;4935253;29;2817;-68
2023/02/20 01:58:49;;;;;;;;;;;;;;;20.28;49.60;101530.88;4938703;28;2672;-68
2023/02/20 02:01:15;;;;;;;;;;;;;;;20.27;49.64;101514.97;4918800;29;1670;-68
2023/02/20 02:03:45;;;;;;;;;;;;;;;20.27;49.64;101517.84;4918056;29;1876;-68
2023/02/20 02:06:11;;;;;;;;;;;;;;;20.26;49.70;101505.59;4934943;29;2885;-68
2023/02/20 02:08:38;;;;;;;;;;;;;;;20.26;49.54;101504.88;4936157;28;1794;-68
2023/02/20 02:11:05;;;;;;;;;;;;;;;20.24;49.60;101499.72;4934612;29;2824;-68
2023/02/20 02:13:33;;;;;;;;;;;;;;;20.24;49.62;101496.13;4936331;29;2512;-68
2023/02/20 02:16:02;;;;;;;;;;;;;;;20.24;49.59;101496.13;4940556;28;2786;-69
2023/02/20 02:18:49;;;;;;;;;;;;;;;20.23;49.61;101483.88;4934190;28;1853;-68
2023/02/20 02:21:34;;;;;;;;;;;;;;;20.23;49.68;101491.75;4939757;28;1718;-68
2023/02/20 02:24:09;;;;;;;;;;;;;;;20.25;49.57;101497.63;4937698;28;1640;-68
2023/02/20 02:26:49;;;;;;;;;;;;;;;20.25;49.50;101486.13;4910787;28;2845;-68
2023/02/20 02:29:34;;;;;;;;;;;;;;;20.24;49.53;101476.72;4905726;29;2856;-68
2023/02/20 02:32:07;;;;;;;;;;;;;;;20.26;49.60;101488.34;4936999;29;2842;-68
2023/02/20 02:34:37;;;;;;;;;;;;;;;20.25;49.47;101486.88;4936650;28;1922;-68
2023/02/20 02:37:12;;;;;;;;;;;;;;;20.26;49.50;101473.97;4932735;28;2338;-67
2023/02/20 02:39:42;;;;;;;;;;;;;;;20.25;49.55;101477.50;4925149;28;1732;-68
2023/02/20 02:42:18;;;;;;;;;;;;;;;20.25;49.69;101468.88;4931801;28;2922;-68
2023/02/20 03:00:55;;;;;;;;;;;;;;;20.22;49.72;101441.34;4916543;28;3419;-69
2023/02/20 03:03:23;;;;;;;;;;;;;;;20.22;49.75;101447.09;4916988;28;2702;-68
2023/02/20 03:05:51;;;;;;;;;;;;;;;20.22;49.56;101439.22;4929274;29;1874;-68
2023/02/20 03:08:29;;;;;;;;;;;;;;;20.23;49.68;101440.00;4933612;29;2082;-67
2023/02/20 03:11:05;;;;;;;;;;;;;;;20.23;49.52;101440.75;4921155;29;2381;-67
2023/02/20 03:16:21;;;;;;;;;;;;;;;20.25;49.77;101428.59;4926442;29;1837;-68
2023/02/20 03:18:48;;;;;;;;;;;;;;;20.25;49.96;101417.09;4937463;29;1791;-68
2023/02/20 03:21:15;;;;;;;;;;;;;;;20.25;49.86;101417.09;4933302;28;2397;-68
2023/02/20 03:23:43;;;;;;;;;;;;;;;20.24;49.70;101404.09;4927138;29;2253;-68
2023/02/20 03:26:16;;;;;;;;;;;;;;;20.23;49.84;101408.34;4910258;29;2958;-69
2023/02/20 03:28:47;;;;;;;;;;;;;;;20.23;49.71;101402.63;4922698;29;2751;-68
2023/02/20 03:31:16;;;;;;;;;;;;;;;20.22;49.78;101389.59;4934760;28;2058;-68
2023/02/20 03:45:22;;;;;;;;;;;;;;;20.23;49.78;101373.84;4935797;28;1741;-68
2023/02/20 03:47:51;;;;;;;;;;;;;;;20.24;49.84;101375.34;4915880;29;2311;-68
2023/02/20 03:53:03;;;;;;;;;;;;;;;20.27;49.92;101371.19;4933679;28;2192;-68
2023/02/20 03:55:30;;;;;;;;;;;;;;;20.27;49.72;101379.81;4916682;29;1972;-68
2023/02/20 03:58:00;;;;;;;;;;;;;;;20.28;49.88;101373.44;4934086;28;2013;-68
2023/02/20 04:00:29;;;;;;;;;;;;;;;20.29;49.70;101386.44;4935213;28;2852;-68
2023/02/20 04:02:57;;;;;;;;;;;;;;;20.29;49.88;101385.66;4905344;29;1765;-68
2023/02/20 04:05:29;;;;;;;;;;;;;;;20.29;49.64;101377.03;4920851;29;2854;-68
2023/02/20 04:07:57;;;;;;;;;;;;;;;20.28;49.73;101381.31;4912300;29;2848;-68
2023/02/20 04:10:27;;;;;;;;;;;;;;;20.29;49.88;101377.03;4925483;29;2386;-68
2023/02/20 04:12:53;;;;;;;;;;;;;;;20.29;49.65;101374.16;4910888;29;1906;-68
2023/02/20 04:15:20;;;;;;;;;;;;;;;20.29;49.78;101371.28;4927898;29;2001;-68
2023/02/20 04:17:49;;;;;;;;;;;;;;;20.30;49.65;101361.28;4915510;29;1892;-68
2023/02/20 04:20:15;;;;;;;;;;;;;;;20.31;49.63;101357.03;4937082;28;2877;-67
2023/02/20 04:22:51;;;;;;;;;;;;;;;20.32;49.62;101352.78;4918107;29;1865;-68
2023/02/20 04:25:20;;;;;;;;;;;;;;;20.32;49.69;101363.53;4929385;29;1826;-68
2023/02/20 04:27:46;;;;;;;;;;;;;;;20.30;49.88;101362.03;4930820;29;1749;-69
2023/02/20 04:30:13;;;;;;;;;;;;;;;20.31;49.85;101354.16;4919201;29;2867;-68
2023/02/20 04:32:39;;;;;;;;;;;;;;;20.31;49.67;101345.53;4921600;29;2108;-67
2023/02/20 04:35:06;;;;;;;;;;;;;;;20.30;49.81;101332.53;4929388;29;2846;-68
2023/02/20 04:37:33;;;;;;;;;;;;;;;20.30;49.92;101326.78;4929008;29;3228;-68
2023/02/20 04:40:00;;;;;;;;;;;;;;;20.31;49.80;101331.16;4939503;28;1679;-68
2023/02/20 04:42:26;;;;;;;;;;;;;;;20.30;49.81;101326.78;4916940;29;1954;-69
2023/02/20 04:44:54;;;;;;;;;;;;;;;20.30;49.84;101316.03;4942196;29;1814;-67
2023/02/20 04:47:20;;;;;;;;;;;;;;;20.32;49.79;101324.03;4940900;29;2254;-68
2023/02/20 04:49:47;;;;;;;;;;;;;;;20.32;49.56;101315.38;4936929;29;2351;-68
2023/02/20 04:52:18;;;;;;;;;;;;;;;20.33;49.65;101330.50;4921175;29;1669;-68
2023/02/20 04:54:44;;;;;;;;;;;;;;;20.33;49.77;101319.00;4926467;29;1928;-68
2023/02/20 04:57:12;;;;;;;;;;;;;;;20.33;49.96;101305.38;4915083;29;2815;-68
2023/02/20 04:59:39;;;;;;;;;;;;;;;20.32;49.79;101306.75;4918033;29;2084;-68
2023/02/20 05:02:05;;;;;;;;;;;;;;;20.32;49.75;101295.25;4930327;29;1672;-67
2023/02/20 05:04:35;;;;;;;;;;;;;;;20.32;49.75;101283.75;4939311;29;1858;-67
2023/02/20 05:07:01;;;;;;;;;;;;;;;20.32;49.74;101278.00;4939564;28;2821;-68
2023/02/20 05:09:27;;;;;;;;;;;;;;;20.30;49.95;101266.38;4939848;29;1746;-68
2023/02/20 05:11:54;;;;;;;;;;;;;;;20.32;49.87;101262.84;4938075;29;2802;-68
2023/02/20 05:14:20;;;;;;;;;;;;;;;20.31;49.67;101253.50;4938621;28;2412;-68
2023/02/20 05:16:47;;;;;;;;;;;;;;;20.31;49.71;101247.75;4937465;29;1701;-68
2023/02/20 05:19:13;;;;;;;;;;;;;;;20.33;49.94;101239.22;4938988;29;1852;-68
2023/02/20 05:24:27;;;;;;;;;;;;;;;20.35;49.76;101258.72;4935628;29;2380;-67
2023/02/20 05:26:54;;;;;;;;;;;;;;;20.34;50.04;101246.47;4939095;29;1659;-68
2023/02/20 05:29:20;;;;;;;;;;;;;;;20.34;49.80;101246.47;4936850;28;1957;-67
2023/02/20 05:31:46;;;;;;;;;;;;;;;20.33;49.85;101239.22;4937113;29;2670;-68
2023/02/20 05:34:13;;;;;;;;;;;;;;;20.33;49.89;101244.97;4935761;28;1976;-68
2023/02/20 05:36:39;;;;;;;;;;;;;;;20.34;49.72;101252.22;4939462;29;1858;-68
2023/02/20 05:39:06;;;;;;;;;;;;;;;20.34;49.84;101240.72;4941307;29;2328;-68
2023/02/20 05:41:32;;;;;;;;;;;;;;;20.33;49.98;101242.09;4932034;28;2782;-68
2023/02/20 05:43:59;;;;;;;;;;;;;;;20.34;50.10;101234.97;4930890;29;2825;-68
2023/02/20 05:46:25;;;;;;;;;;;;;;;20.33;49.92;101236.34;4935235;29;1722;-69
2023/02/20 05:48:52;;;;;;;;;;;;;;;20.32;49.75;101237.75;4933823;28;2789;-69
2023/02/20 05:51:19;;;;;;;;;;;;;;;20.41;49.91;101227.38;4936951;29;2846;-71
2023/02/20 05:53:45;;;;;;;;;;;;;;;20.40;49.89;101237.41;4931591;28;2840;-71
2023/02/20 05:56:12;;;;;;;;;;;;;;;20.41;49.96;101230.25;4933429;29;2851;-70
2023/02/20 05:58:40;;;;;;;;;;;;;;;20.44;49.92;101232.59;4933298;29;2468;-70
2023/02/20 06:01:06;;;;;;;;;;;;;;;20.44;49.78;101221.09;4932901;29;2894;-72
2023/02/20 06:03:33;;;;;;;;;;;;;;;20.43;49.89;101216.75;4936261;29;2697;-70
2023/02/20 06:06:00;;;;;;;;;;;;;;;20.42;49.88;101200.88;4936663;29;2498;-70
2023/02/20 06:08:26;;;;;;;;;;;;;;;20.44;50.21;101200.97;4935900;28;2478;-71
2023/02/20 06:10:53;;;;;;;;;;;;;;;20.53;50.04;101192.78;4933419;29;2642;-67
2023/02/20 06:13:19;;;;;;;;;;;;;;;20.49;50.61;101188.28;4927312;29;3422;-81
2023/02/20 06:15:46;;;;;;;;;;;;;;;20.62;51.60;101186.06;4936608;29;3032;-82
2023/02/20 06:18:12;;;;;;;;;;;;;;;20.83;52.00;101179.19;4931464;28;3217;-81
2023/02/20 06:20:38;;;;;;;;;;;;;;;20.91;52.13;101180.34;4936698;29;2967;-78
2023/02/20 06:23:05;;;;;;;;;;;;;;;21.00;51.82;101174.97;4935488;28;3282;-80
2023/02/20 06:25:31;;;;;;;;;;;;;;;21.04;52.01;101164.38;4931936;28;3052;-81
2023/02/20 06:27:59;;;;;;;;;;;;;;;21.09;51.77;101166.06;4933313;29;2418;-83
2023/02/20 06:30:25;;;;;;;;;;;;;;;21.11;51.78;101169.03;4931056;29;4476;-72
2023/02/20 06:32:52;;;;;;;;;;;;;;;21.15;51.68;101162.75;4930697;28;3026;-76
2023/02/20 06:35:18;;;;;;;;;;;;;;;21.16;51.75;101146.94;4932466;28;3288;-78
2023/02/20 06:37:44;;;;;;;;;;;;;;;21.20;51.91;101129.13;4937167;29;2822;-80
2023/02/20 06:40:11;;;;;;;;;;;;;;;21.21;51.74;101137.13;4935787;28;2983;-72
2023/02/20 06:42:37;;;;;;;;;;;;;;;21.18;52.03;101161.44;4937099;28;2613;-75
2023/02/20 06:45:04;;;;;;;;;;;;;;;21.22;51.80;101178.94;4937770;28;2903;-74
2023/02/20 06:47:30;;;;;;;;;;;;;;;21.18;51.54;101155.69;4942180;28;2842;-73
2023/02/20 06:49:56;;;;;;;;;;;;;;;21.16;51.47;101169.97;4940460;29;3002;-75
2023/02/20 06:52:23;;;;;;;;;;;;;;;21.17;51.79;101145.56;4936530;29;1751;-71
2023/02/20 06:54:51;;;;;;;;;;;;;;;21.13;51.83;101137.47;4940354;29;1936;-73
2023/02/20 06:57:26;;;;;;;;;;;;;;;21.25;51.32;101137.28;4938085;28;2865;-73
2023/02/20 06:59:54;;;;;;;;;;;;;;;21.31;51.11;101140.47;4925882;29;2818;-71
2023/02/20 07:02:20;;;;;;;;;;;;;;;21.29;51.23;101137.50;4937500;29;1847;-72
2023/02/20 07:04:49;;;;;;;;;;;;;;;21.26;50.98;101130.16;4936662;29;1902;-74
2023/02/20 07:07:16;;;;;;;;;;;;;;;21.26;51.58;101143.81;4937920;29;2920;-77
2023/02/20 07:09:45;;;;;;;;;;;;;;;21.26;51.11;101155.34;4939118;28;2480;-72
2023/02/20 07:12:14;;;;;;;;;;;;;;;21.27;51.25;101151.78;4930636;28;3015;-73
2023/02/20 07:19:42;;;;;;;;;;;;;;;21.23;50.96;101127.81;4891406;28;2869;-78
2023/02/20 07:22:10;;;;;;;;;;;;;;;21.22;51.15;101138.59;4934080;28;2888;-72
2023/02/20 07:24:41;;;;;;;;;;;;;;;21.21;50.72;101119.84;4938362;28;1699;-71
2023/02/20 07:38:59;;;;;;;;;;;;;;;21.73;49.09;101123.66;4768788;29;1854;-68
2023/02/20 07:42:04;;;;;;;;;;;;;;;21.78;48.79;101135.38;4814695;29;2987;-69
2023/02/20 07:46:14;;;;;;;;;;;;;;;21.56;48.96;101089.78;4757628;29;2967;-68
2023/02/20 07:49:27;;;;;;;;;;;;;;;21.55;49.29;101091.16;4844167;29;3037;-72
2023/02/20 07:52:32;;;;;;;;;;;;;;;21.63;47.58;101088.66;4842625;29;2711;-76
2023/02/20 07:55:39;;;;;;;;;;;;;;;21.36;45.81;101085.94;4870186;29;2719;-74
2023/02/20 07:58:48;;;;;;;;;;;;;;;20.94;45.17;101080.41;4853543;29;2726;-71
2023/02/20 08:01:14;;;;;;;;;;;;;;;20.95;45.03;101092.66;4856392;29;2943;-69
2023/02/20 08:03:41;;;;;;;;;;;;;;;21.00;45.45;101082.84;4849025;29;2796;-71
2023/02/20 08:06:07;;;;;;;;;;;;;;;21.08;45.64;101065.94;4834331;29;2832;-72
2023/02/20 08:08:34;;;;;;;;;;;;;;;21.11;45.46;101068.25;4846098;29;3173;-73
2023/02/20 08:11:00;;;;;;;;;;;;;;;21.14;46.23;101060.44;4850477;29;3001;-70
2023/02/20 08:13:35;;;;;;;;;;;;;;;21.16;46.41;101051.91;4848596;29;2714;-70
2023/02/20 08:16:01;;;;;;;;;;;;;;;21.20;46.33;101049.22;4845985;29;3081;-75
2023/02/20 08:22:21;;;;;;;;;;;;;;;21.08;46.79;101031.41;4849911;29;2668;-78
2023/02/20 08:25:20;;;;;;;;;;;;;;;21.01;47.01;101036.13;4850938;29;2911;-76
2023/02/20 08:27:57;;;;;;;;;;;;;;;20.99;47.35;101023.78;4849304;29;3037;-79
2023/02/20 08:30:25;;;;;;;;;;;;;;;20.99;47.43;101029.53;4924059;28;2741;-76
2023/02/20 08:33:26;;;;;;;;;;;;;;;20.96;47.53;101020.06;4936807;28;2725;-74
2023/02/20 08:35:54;;;;;;;;;;;;;;;20.95;47.69;101006.31;4939831;28;2999;-78
2023/02/20 08:38:34;;;;;;;;;;;;;;;20.95;47.58;101017.81;4941283;28;3165;-80
2023/02/20 08:41:22;;;;;;;;;;;;;;;20.95;47.81;101007.06;4938167;28;1932;-77
2023/02/20 08:44:17;;;;;;;;;;;;;;;20.93;47.23;100992.56;4933194;28;2928;-76
2023/02/20 08:47:06;;;;;;;;;;;;;;;20.99;47.75;101000.75;4933917;28;2875;-71
2023/02/20 08:50:00;;;;;;;;;;;;;;;21.18;47.32;100993.69;4932602;28;3608;-77
2023/02/20 08:52:27;;;;;;;;;;;;;;;21.19;47.78;100986.50;4940387;28;3091;-73
2023/02/20 08:55:03;;;;;;;;;;;;;;;21.17;48.15;100983.56;4932883;29;2468;-70
2023/02/20 08:57:30;;;;;;;;;;;;;;;21.22;48.16;100980.19;4938317;28;2765;-75
2023/02/20 08:59:56;;;;;;;;;;;;;;;21.25;47.68;100970.25;4935608;29;2710;-70
2023/02/20 09:02:28;;;;;;;;;;;;;;;21.32;47.74;100974.88;4936226;28;2991;-76
2023/02/20 09:04:54;;;;;;;;;;;;;;;21.32;47.79;100962.63;4934451;28;2935;-77
2023/02/20 09:07:21;;;;;;;;;;;;;;;21.30;48.02;100948.13;4938315;28;2892;-72
2023/02/20 09:09:49;;;;;;;;;;;;;;;21.32;48.21;100948.22;4940346;29;1715;-72
2023/02/20 09:12:16;;;;;;;;;;;;;;;21.36;48.07;100939.03;4940264;29;1691;-69
2023/02/20 09:14:42;;;;;;;;;;;;;;;21.38;48.10;100930.47;4939669;29;1998;-69
2023/02/20 09:17:08;;;;;;;;;;;;;;;21.38;48.61;100924.72;4940008;29;1711;-70
2023/02/20 09:19:35;;;;;;;;;;;;;;;21.36;47.81;100910.97;4939947;29;1663;-72
2023/02/20 09:22:01;;;;;;;;;;;;;;;21.32;47.87;100905.75;4938097;29;1627;-73
2023/02/20 09:24:32;;;;;;;;;;;;;;;21.31;48.02;100887.00;4939187;29;1720;-76
2023/02/20 09:26:59;;;;;;;;;;;;;;;21.29;48.02;100901.31;4941630;29;1768;-75
2023/02/20 09:29:26;;;;;;;;;;;;;;;21.30;47.75;100891.28;4939773;28;3722;-74
2023/02/20 09:31:52;;;;;;;;;;;;;;;21.33;47.77;100884.22;4938317;29;1672;-78
2023/02/20 09:34:19;;;;;;;;;;;;;;;21.33;48.02;100889.22;4937898;29;1918;-70
2023/02/20 09:36:46;;;;;;;;;;;;;;;21.31;47.69;100880.50;4938724;29;1743;-79
2023/02/20 09:39:16;;;;;;;;;;;;;;;21.32;48.15;100881.97;4940181;29;1914;-72
2023/02/20 09:42:01;;;;;;;;;;;;;;;21.30;47.97;100885.53;4937215;29;1660;-72
2023/02/20 09:44:31;;;;;;;;;;;;;;;21.40;48.02;100884.47;4931093;28;4609;-70
2023/02/20 09:47:02;;;;;;;;;;;;;;;21.50;47.38;100882.03;4929092;28;4231;-70
2023/02/20 09:49:36;;;;;;;;;;;;;;;21.56;47.66;100882.31;4936912;29;4366;-69
2023/02/20 09:52:03;;;;;;;;;;;;;;;21.58;47.70;100873.75;4939336;29;2625;-70
2023/02/20 09:54:31;;;;;;;;;;;;;;;21.28;47.00;100862.41;4935617;29;2885;-70
2023/02/20 09:56:58;;;;;;;;;;;;;;;21.32;47.65;100870.44;4931583;29;2856;-69
2023/02/20 09:59:32;;;;;;;;;;;;;;;21.39;47.62;100865.69;4938991;29;2673;-72
2023/02/20 10:02:00;;;;;;;;;;;;;;;21.39;47.65;100868.56;4936660;28;3098;-68
2023/02/20 10:04:32;;;;;;;;;;;;;;;21.36;47.79;100869.91;4938538;29;1619;-68
2023/02/20 10:07:28;;;;;;;;;;;;;;;21.38;47.57;100867.09;4924227;29;1834;-72
2023/02/20 10:09:54;;;;;;;;;;;;;;;21.30;47.85;100867.47;4924805;28;1972;-72
2023/02/20 10:12:20;;;;;;;;;;;;;;;21.28;47.73;100859.53;4933365;28;1664;-70
2023/02/20 10:14:50;;;;;;;;;;;;;;;21.31;47.52;100857.47;4937699;29;1926;-75
2023/02/20 10:17:19;;;;;;;;;;;;;;;21.29;47.68;100846.59;4935188;28;1683;-72
2023/02/20 10:20:15;;;;;;;;;;;;;;;21.30;47.79;100839.44;4942815;28;1676;-72
2023/02/20 10:23:04;;;;;;;;;;;;;;;21.17;47.42;100851.84;4926491;28;2739;-71
2023/02/20 10:25:35;;;;;;;;;;;;;;;21.10;47.70;100839.31;4934043;29;2392;-68
2023/02/20 10:28:13;;;;;;;;;;;;;;;21.12;47.51;100835.78;4933617;28;3279;-69
2023/02/20 10:30:41;;;;;;;;;;;;;;;21.02;47.27;100826.69;4922858;29;1732;-67
2023/02/20 10:33:26;;;;;;;;;;;;;;;21.01;47.72;100836.75;4931166;29;4608;-67
2023/02/20 10:35:55;;;;;;;;;;;;;;;20.99;47.85;100823.00;4934696;29;4046;-69
2023/02/20 10:38:22;;;;;;;;;;;;;;;20.97;47.70;100839.44;4934276;28;1709;-69
2023/02/20 10:40:50;;;;;;;;;;;;;;;20.93;47.97;100837.13;4917230;29;2432;-69
2023/02/20 10:43:18;;;;;;;;;;;;;;;20.92;47.78;100832.78;4932222;28;1631;-69
2023/02/20 10:45:53;;;;;;;;;;;;;;;20.91;47.92;100828.41;4933686;28;1835;-69
2023/02/20 10:48:19;;;;;;;;;;;;;;;20.89;47.79;100820.44;4935668;29;1906;-68
2023/02/20 10:50:48;;;;;;;;;;;;;;;20.91;47.79;100820.53;4921398;29;1729;-68
2023/02/20 10:53:26;;;;;;;;;;;;;;;20.91;48.03;100816.88;4935251;29;2434;-68
2023/02/20 10:56:13;;;;;;;;;;;;;;;20.89;47.93;100802.41;4936667;29;1903;-69
2023/02/20 10:58:58;;;;;;;;;;;;;;;20.89;48.06;100785.13;4938943;29;2343;-70
2023/02/20 11:01:25;;;;;;;;;;;;;;;20.90;47.96;100793.13;4931789;29;2845;-68
2023/02/20 11:03:55;;;;;;;;;;;;;;;20.91;48.28;100791.72;4934489;29;2292;-69
2023/02/20 11:06:21;;;;;;;;;;;;;;;20.92;48.28;100796.09;4934934;28;2111;-68
2023/02/20 11:08:48;;;;;;;;;;;;;;;20.93;48.33;100786.03;4935797;29;1862;-69
2023/02/20 11:11:18;;;;;;;;;;;;;;;20.95;48.45;100790.41;4937810;29;1702;-71
2023/02/20 11:13:44;;;;;;;;;;;;;;;20.95;48.40;100788.28;4933505;28;1667;-70
2023/02/20 11:16:16;;;;;;;;;;;;;;;20.94;48.34;100792.56;4933372;29;1955;-69
2023/02/20 11:22:58;;;;;;;;;;;;;;;20.92;48.63;100775.19;4875374;29;2829;-74
2023/02/20 11:25:25;;;;;;;;;;;;;;;21.11;49.10;100770.94;4870001;29;3001;-72
2023/02/20 11:27:53;;;;;;;;;;;;;;;21.26;49.21;100766.53;4921715;29;2849;-73
2023/02/20 11:30:30;;;;;;;;;;;;;;;21.32;48.76;100767.50;4937779;29;2935;-74
2023/02/20 11:33:11;;;;;;;;;;;;;;;21.40;49.00;100766.38;4936611;29;3423;-67
2023/02/20 11:35:38;;;;;;;;;;;;;;;21.46;49.16;100766.63;4934821;28;2884;-69
2023/02/20 11:38:13;;;;;;;;;;;;;;;21.52;48.74;100772.66;4929602;29;2977;-70
2023/02/20 11:40:39;;;;;;;;;;;;;;;21.63;48.88;100756.50;4937802;28;3009;-74
2023/02/20 11:43:26;;;;;;;;;;;;;;;21.63;48.72;100754.38;4937600;29;2934;-72
2023/02/20 11:46:11;;;;;;;;;;;;;;;21.61;48.99;100760.03;4917382;29;3587;-73
2023/02/20 11:48:43;;;;;;;;;;;;;;;21.61;48.91;100762.94;4937173;29;2818;-69
2023/02/20 11:51:09;;;;;;;;;;;;;;;21.66;48.80;100760.94;4918499;29;2783;-68
2023/02/20 11:53:36;;;;;;;;;;;;;;;21.81;49.02;100768.75;4920173;28;3066;-71
2023/02/20 11:56:11;;;;;;;;;;;;;;;21.84;48.61;100778.22;4932863;28;2467;-69
2023/02/20 11:58:38;;;;;;;;;;;;;;;21.85;48.68;100756.63;4938961;28;2489;-71
2023/02/20 12:01:04;;;;;;;;;;;;;;;21.85;48.58;100768.16;4936356;28;3008;-74
2023/02/20 12:03:33;;;;;;;;;;;;;;;21.80;48.78;100761.50;4935930;28;2643;-69
2023/02/20 12:06:00;;;;;;;;;;;;;;;21.79;48.81;100765.06;4940268;28;2650;-74
2023/02/20 12:08:35;;;;;;;;;;;;;;;21.75;48.67;100763.47;4927653;28;2931;-74
2023/02/20 12:11:05;;;;;;;;;;;;;;;21.74;48.89;100753.38;4937848;28;3354;-69
2023/02/20 12:13:42;;;;;;;;;;;;;;;21.74;49.14;100747.59;4941017;28;2910;-78
2023/02/20 12:16:08;;;;;;;;;;;;;;;21.77;49.21;100757.06;4923916;28;2873;-81
2023/02/20 12:18:43;;;;;;;;;;;;;;;21.75;49.21;100749.06;4936958;28;2702;-69
2023/02/20 12:21:41;;;;;;;;;;;;;;;21.78;49.38;100763.56;4922379;28;3028;-70
2023/02/20 12:24:12;;;;;;;;;;;;;;;21.72;49.56;100759.03;4917548;28;2925;-69
2023/02/20 12:26:49;;;;;;;;;;;;;;;21.56;48.97;100757.69;4937474;28;2851;-70
2023/02/20 12:29:26;;;;;;;;;;;;;;;21.48;49.34;100755.19;4936606;28;2918;-74
2023/02/20 12:32:11;;;;;;;;;;;;;;;21.44;49.35;100757.91;4936680;28;3909;-71
2023/02/20 12:34:47;;;;;;;;;;;;;;;21.42;49.44;100757.84;4936654;28;2963;-70
2023/02/20 12:37:16;;;;;;;;;;;;;;;21.45;49.40;100753.63;4932330;28;4220;-73
2023/02/20 12:39:45;;;;;;;;;;;;;;;21.62;50.04;100769.41;4932580;28;4739;-70
2023/02/20 12:42:16;;;;;;;;;;;;;;;21.70;49.48;100770.50;4933817;28;3378;-74
2023/02/20 12:45:08;;;;;;;;;;;;;;;21.70;49.32;100758.97;4932400;28;2886;-73
2023/02/20 12:47:42;;;;;;;;;;;;;;;21.74;49.54;100764.16;4927485;28;2970;-72
2023/02/20 12:50:15;;;;;;;;;;;;;;;21.75;49.32;100772.13;4934932;28;4533;-77
2023/02/20 12:52:49;;;;;;;;;;;;;;;21.81;49.38;100774.53;4939747;28;3094;-75
2023/02/20 12:55:17;;;;;;;;;;;;;;;21.81;49.47;100771.63;4938946;28;3070;-80
2023/02/20 12:57:47;;;;;;;;;;;;;;;21.80;49.40;100755.00;4937101;28;3177;-77
2023/02/20 13:00:14;;;;;;;;;;;;;;;21.81;49.22;100765.13;4937429;28;2864;-73
2023/02/20 13:02:44;;;;;;;;;;;;;;;21.81;49.32;100763.00;4934428;28;2724;-68
2023/02/20 13:05:11;;;;;;;;;;;;;;;21.90;49.49;100769.81;4932591;28;2713;-71
2023/02/20 13:07:42;;;;;;;;;;;;;;;21.85;49.65;100768.16;4920509;28;3060;-69
2023/02/20 13:10:12;;;;;;;;;;;;;;;21.83;50.01;100757.31;4933449;28;3030;-71
2023/02/20 13:12:38;;;;;;;;;;;;;;;21.87;49.73;100776.88;4936584;28;2726;-69
2023/02/20 13:15:15;;;;;;;;;;;;;;;21.85;49.92;100759.50;4927363;29;3106;-67
2023/02/20 13:17:42;;;;;;;;;;;;;;;21.91;49.37;100768.41;4918894;29;2952;-67
2023/02/20 13:20:10;;;;;;;;;;;;;;;21.88;49.76;100755.31;4930127;28;3000;-67
2023/02/20 13:22:36;;;;;;;;;;;;;;;21.88;49.99;100758.19;4917837;28;2911;-68
2023/02/20 13:25:21;;;;;;;;;;;;;;;21.89;50.18;100751.03;4935941;28;2700;-68
2023/02/20 13:27:53;;;;;;;;;;;;;;;21.94;49.96;100747.66;4934395;28;3015;-68
2023/02/20 13:30:20;;;;;;;;;;;;;;;21.98;49.50;100758.56;4917064;28;3430;-72
2023/02/20 13:32:46;;;;;;;;;;;;;;;21.44;49.04;100749.25;4931087;28;2691;-73
2023/02/20 13:35:33;;;;;;;;;;;;;;;21.31;48.76;100754.50;4918471;28;2999;-72
2023/02/20 13:38:09;;;;;;;;;;;;;;;21.24;49.08;100744.16;4937375;28;2887;-70
2023/02/20 13:40:38;;;;;;;;;;;;;;;21.20;49.11;100738.22;4934847;28;3026;-68
2023/02/20 13:43:13;;;;;;;;;;;;;;;21.20;49.40;100749.72;4933344;28;3042;-70
2023/02/20 13:45:40;;;;;;;;;;;;;;;21.13;49.70;100757.38;4926889;28;3315;-70
2023/02/20 13:48:19;;;;;;;;;;;;;;;21.12;49.40;100752.28;4931812;28;2920;-68
2023/02/20 13:50:46;;;;;;;;;;;;;;;21.10;49.49;100752.22;4929156;28;2903;-73
2023/02/20 13:53:12;;;;;;;;;;;;;;;21.14;49.46;100746.59;4930516;28;3026;-74
2023/02/20 13:55:39;;;;;;;;;;;;;;;21.02;49.67;100754.72;4926048;28;3160;-72
2023/02/20 13:58:10;;;;;;;;;;;;;;;21.19;49.55;100748.25;4930216;28;2549;-67
2023/02/20 14:00:42;;;;;;;;;;;;;;;21.28;49.33;100749.31;4930626;28;3030;-70
2023/02/20 14:03:12;;;;;;;;;;;;;;;21.36;49.60;100740.28;4932932;29;3121;-71
2023/02/20 14:05:39;;;;;;;;;;;;;;;20.46;49.20;100746.59;4922020;28;4806;-70
2023/02/20 14:08:05;;;;;;;;;;;;;;;20.89;50.08;100742.72;4925647;29;3433;-73